ハリファックス の空港の天気 - METARとTAF

ハリファックス国際空港 ( CYHZ / YHZ ) - カナダ ノバスコシア州ハリファックス
飛行場実況気象(Metar)
観測時間11/13 04:04 AST (11/13 08:04 UTC)
風向・風速西北西 8m/s 瞬間風速11m/s
視程10km以上
天気現象弱い雪 弱い凍雨 弱い雨
全天を覆う雲 雲底高度 150m
気温0℃
湿度93%
気圧1001.8hPa
METARCYHZ 130804Z 30016G22KT 8SM -SNPLRA OVC005 M00/M01 A2957 RMK ST8 SLP018
過去の天気等 Google飛行場航空写真 Wunderground天気予報

過去48時間のMETAR

飛行場予報(TAF)
発表時間: 11/13 03:52 AST (11/13 07:52 UTC)
予報対象時間: 13日3時 AST ~ 14日2時 AST
風向・風速北西 6m/s 瞬間風速 11m/s
視程10km以上
天気現象弱い雨凍雨
少しの雲 雲底高度 240m
全天を覆う雲 雲底高度 760m
13日3時 AST ~ 13日7時 AST に一時的に
視程3220m
天気現象弱い雪
全天を覆う雲 雲底高度 240m
13日7時 AST から
風向・風速西 5m/s 瞬間風速 10m/s
視程10km以上
天気現象弱い雪
全天の8割程度の雲 雲底高度 610m
13日7時 AST ~ 13日11時 AST に一時的に
視程10km以上
天気現象運行に影響にある天気現象が終了
全天の8割程度の雲 雲底高度 760m
13日11時 AST から
風向・風速西北西 8m/s 瞬間風速 13m/s
視程10km以上
全天の8割程度の雲 雲底高度 760m
13日13時 AST から
風向・風速西北西 9m/s 瞬間風速 14m/s
視程10km以上
天気現象弱いしゅう雪
全天の8割程度の雲 雲底高度 1220m
13日18時 AST から
風向・風速北西 8m/s 瞬間風速 13m/s
視程10km以上
全天の8割程度の雲 雲底高度 760m
14日1時 AST から
風向・風速北西 6m/s
視程10km以上
全天の4割程度の雲 雲底高度 910m
TAF AMD CYHZ 130752Z 1307/1406 31012G22KT 6SM -RAPL FEW008 OVC025
TEMPO 1307/1311 2SM -SN OVC008
FM131100 28010G20KT 6SM -SN BKN020
TEMPO 1311/1315 P6SM NSW BKN025
FM131500 29015G25KT P6SM BKN025
FM131700 29018G28KT P6SM -SHSN BKN040
FM132200 31015G25KT P6SM BKN025
FM140500 32012KT P6SM SCT030 RMK NXT FCST BY 130900Z